Cadiz, KY

11:40 AM CDT on May 23, 2015 (GMT -0500)
enchanted shores | | Change Station
CLOSE
Current Station
Personal Weather Station
Location: Cadiz, KY
Elevation: 404 ft
Nearby Weather Stations

Elev 404 ft 36.86 °N, 87.94 °W | Updated 3 minutes ago

Mostly Cloudy
Mostly Cloudy
75.4 °F
Feels Like 78 °F
N
1.1
Wind Variable Wind from SSE

Today
High -- | Low -- °F
--% Chance of Precip.
Yesterday
High -- | Low -- °F
Precip. -- in
5:38 AM 7:58 PM
Waxing Crescent, 31% visible
Pressure 30.34 in
Visibility 10.0 miles
Clouds Few 10000 ft
Scattered Clouds 13000 ft
Mostly Cloudy 20000 ft
Heat Index 78 °F
Dew Point 55 °F
Humidity 49%
Rainfall 0.00 in
Snow Depth Not available.
UV 5 out of 12
Pollen 7.00 out of 12
Air Quality Not available.
Flu Activity Sporadic
METAR KHOP 231558Z AUTO 13007KT 10SM FEW100 SCT130 BKN200 22/10 A3034 RMK AO2 SLP273 T02160102

More Conditions Fewer Conditions

Pressure 30.34 in
Visibility 10.0 miles
Clouds Few 10000 ft
Scattered Clouds 13000 ft
Mostly Cloudy 20000 ft
Heat Index 78 °F
Dew Point 55 °F
Humidity 49%
Rainfall 0.00 in
Snow Depth Not available.
UV 5 out of 12
Pollen 7.00 out of 12
Air Quality Not available.
Flu Activity Sporadic
METAR KHOP 231558Z AUTO 13007KT 10SM FEW100 SCT130 BKN200 22/10 A3034 RMK AO2 SLP273 T02160102

More Conditions Fewer Conditions

10-Day Weather Forecast

Almanac

Astronomy

May. 23, 2015 Rise Set
Actual Time
Civil Twilight
Nautical Twilight
Astronomical Twilight
Moon
Length of Visible Light
Length of Day
Tomorrow will be .
, % of the Moon is Illuminated

Today's Extremes

State Highs State Lows

Community

WunderPhotos

Upload Photos

1,823,516 photos uploaded!

WunderBlogs® & News

Nearby

Air Quality

  Air Quality AQ Index Pollutant
Not available.

Snow Depth

Station Depth Elevation

Earthquake Activity

City Distance Mag. Time & Date
Minimum magnitude displayed is 2.5.

Coastal Water Temperatures

Place Temperature

Stations

Nearby Weather Stations

Station Location Temp. Windchill Dew Point Humidity Wind Precip. Elev Updated Type